createdAt,value
2022-10-16T00:01:29.576Z,102296.69
2022-10-16T00:03:58.201Z,102298.66
2022-10-16T00:06:26.573Z,102297.06
2022-10-16T00:08:55.429Z,102305.19
2022-10-16T00:11:27.115Z,102296.50
2022-10-16T00:13:58.208Z,102294.91
2022-10-16T00:16:26.169Z,102293.09
2022-10-16T00:18:56.065Z,102301.22
2022-10-16T00:21:25.539Z,102304.69
2022-10-16T00:23:54.431Z,102298.22
2022-10-16T00:26:22.288Z,102300.31
2022-10-16T00:28:51.349Z,102300.47
2022-10-16T00:31:21.075Z,102306.31
2022-10-16T00:33:48.728Z,102302.13
2022-10-16T00:36:18.684Z,102303.31
2022-10-16T00:38:46.563Z,102305.59
2022-10-16T00:41:16.280Z,102308.50
2022-10-16T00:43:48.568Z,102310.22
2022-10-16T00:46:21.251Z,102315.59
2022-10-16T00:48:53.876Z,102313.22
2022-10-16T00:51:24.413Z,102315.91
2022-10-16T00:53:53.217Z,102318.50
2022-10-16T00:56:21.071Z,102316.69
2022-10-16T00:58:48.676Z,102305.59
2022-10-16T01:01:16.613Z,102313.50
2022-10-16T01:03:44.313Z,102316.41
2022-10-16T01:06:32.997Z,102316.94
2022-10-16T01:09:13.550Z,102313.91
2022-10-16T01:12:14.808Z,102321.19
2022-10-16T01:14:58.420Z,102325.78
2022-10-16T01:17:38.004Z,102320.72
2022-10-16T01:20:12.483Z,102328.25
2022-10-16T01:22:41.288Z,102324.94
2022-10-16T01:25:13.200Z,102326.97
2022-10-16T01:27:40.832Z,102330.88
2022-10-16T01:30:16.845Z,102323.78
2022-10-16T01:33:16.326Z,102322.34
2022-10-16T01:35:48.140Z,102326.91
2022-10-16T01:38:21.828Z,102327.97
2022-10-16T01:40:53.139Z,102318.28
2022-10-16T01:43:22.752Z,102322.50
2022-10-16T01:45:50.644Z,102324.56
2022-10-16T01:48:19.448Z,102337.03
2022-10-16T01:50:53.443Z,102334.63
2022-10-16T01:53:21.267Z,102327.91
2022-10-16T01:55:49.848Z,102328.97
2022-10-16T01:58:20.164Z,102338.25
2022-10-16T02:00:48.310Z,102343.38
2022-10-16T02:03:17.559Z,102337.81
2022-10-16T02:05:52.004Z,102332.66
2022-10-16T02:08:20.347Z,102341.00
2022-10-16T02:10:48.563Z,102334.63
2022-10-16T02:13:32.705Z,102343.72
2022-10-16T02:16:00.364Z,102343.03
2022-10-16T02:18:32.021Z,102353.72
2022-10-16T02:21:24.037Z,102346.63
2022-10-16T02:24:14.670Z,102343.41
2022-10-16T02:27:11.893Z,102345.38
2022-10-16T02:29:41.933Z,102361.50
2022-10-16T02:32:09.497Z,102357.88
2022-10-16T02:34:38.626Z,102369.47
2022-10-16T02:37:06.305Z,102370.47
2022-10-16T02:39:34.252Z,102365.25
2022-10-16T02:42:02.623Z,102366.31
2022-10-16T02:44:31.065Z,102369.16
2022-10-16T02:46:58.769Z,102367.53
2022-10-16T02:49:26.676Z,102373.88
2022-10-16T02:51:54.460Z,102372.06
2022-10-16T02:54:22.189Z,102374.97
2022-10-16T02:56:50.147Z,102376.88
2022-10-16T02:59:17.872Z,102386.78
2022-10-16T03:01:47.094Z,102383.31
2022-10-16T03:04:14.840Z,102390.56
2022-10-16T03:06:42.446Z,102391.22
2022-10-16T03:09:10.049Z,102384.88
2022-10-16T03:11:37.709Z,102388.22
2022-10-16T03:14:06.382Z,102387.47
2022-10-16T03:16:34.132Z,102388.47
2022-10-16T03:19:02.400Z,102394.81
2022-10-16T03:21:30.828Z,102385.13
2022-10-16T03:23:58.423Z,102389.66
2022-10-16T03:26:26.137Z,102386.91
2022-10-16T03:28:53.945Z,102388.66
2022-10-16T03:31:21.706Z,102385.25
2022-10-16T03:33:49.352Z,102394.28
2022-10-16T03:36:17.043Z,102389.03
2022-10-16T03:38:44.782Z,102386.44
2022-10-16T03:41:12.642Z,102377.56
2022-10-16T03:43:40.340Z,102374.88
2022-10-16T03:46:08.158Z,102379.09
2022-10-16T03:48:36.559Z,102386.31
2022-10-16T03:51:04.299Z,102385.44
2022-10-16T03:53:32.435Z,102376.47
2022-10-16T03:56:00.065Z,102379.16
2022-10-16T03:58:27.669Z,102379.22
2022-10-16T04:00:55.308Z,102380.97
2022-10-16T04:03:24.175Z,102381.81
2022-10-16T04:05:51.825Z,102381.91
2022-10-16T04:08:19.572Z,102384.66
2022-10-16T04:10:47.138Z,102383.78
2022-10-16T04:13:14.870Z,102389.03
2022-10-16T04:15:42.478Z,102388.13
2022-10-16T04:18:10.555Z,102391.59
2022-10-16T04:20:38.703Z,102389.84
2022-10-16T04:23:06.364Z,102392.34
2022-10-16T04:25:35.054Z,102398.50
2022-10-16T04:28:02.981Z,102395.69
2022-10-16T04:30:30.770Z,102403.50
2022-10-16T04:32:58.528Z,102400.63
2022-10-16T04:35:26.866Z,102398.41
2022-10-16T04:37:54.504Z,102400.69
2022-10-16T04:40:22.219Z,102396.81
2022-10-16T04:42:50.014Z,102396.53
2022-10-16T04:45:17.729Z,102402.22
2022-10-16T04:47:48.284Z,102397.88
2022-10-16T04:50:16.015Z,102395.13
2022-10-16T04:53:02.362Z,102396.94
2022-10-16T04:55:30.596Z,102405.28
2022-10-16T04:57:58.186Z,102401.72
2022-10-16T05:00:25.884Z,102404.56
2022-10-16T05:02:53.585Z,102401.13
2022-10-16T05:05:21.491Z,102407.75
2022-10-16T05:07:49.370Z,102405.31
2022-10-16T05:10:17.959Z,102411.81
2022-10-16T05:12:48.924Z,102415.50
2022-10-16T05:15:17.492Z,102417.38
2022-10-16T05:17:45.231Z,102418.41
2022-10-16T05:20:13.711Z,102415.94
2022-10-16T05:22:41.798Z,102410.69
2022-10-16T05:25:10.200Z,102416.19
2022-10-16T05:27:38.600Z,102419.91
2022-10-16T05:30:09.912Z,102422.63
2022-10-16T05:32:41.029Z,102421.88
2022-10-16T05:35:12.557Z,102413.97
2022-10-16T05:37:41.943Z,102418.75
2022-10-16T05:40:10.747Z,102424.94
2022-10-16T05:42:38.616Z,102424.16
2022-10-16T05:45:07.431Z,102418.75
2022-10-16T05:47:35.106Z,102422.34
2022-10-16T05:50:05.501Z,102420.38
2022-10-16T05:52:33.255Z,102420.97
2022-10-16T05:55:01.121Z,102416.25
2022-10-16T05:57:29.655Z,102419.63
2022-10-16T05:59:57.415Z,102427.56
2022-10-16T06:02:25.108Z,102429.09
2022-10-16T06:04:54.805Z,102427.31
2022-10-16T06:07:24.841Z,102435.06
2022-10-16T06:09:53.352Z,102441.22
2022-10-16T06:12:21.306Z,102438.44
2022-10-16T06:14:50.356Z,102447.56
2022-10-16T06:17:20.365Z,102450.97
2022-10-16T06:19:49.220Z,102450.78
2022-10-16T06:22:17.370Z,102449.22
2022-10-16T06:24:45.118Z,102456.81
2022-10-16T06:27:12.890Z,102463.63
2022-10-16T06:29:40.875Z,102468.72
2022-10-16T06:32:08.621Z,102464.81
2022-10-16T06:34:38.510Z,102472.59
2022-10-16T06:37:09.705Z,102472.13
2022-10-16T06:39:37.527Z,102480.66
2022-10-16T06:42:05.238Z,102485.53
2022-10-16T06:44:37.313Z,102483.88
2022-10-16T06:47:05.329Z,102487.63
2022-10-16T06:49:32.964Z,102489.09
2022-10-16T06:52:01.248Z,102485.47
2022-10-16T06:54:29.716Z,102482.19
2022-10-16T06:57:01.092Z,102484.09
2022-10-16T06:59:29.680Z,102491.91
2022-10-16T07:01:57.531Z,102497.13
2022-10-16T07:04:25.073Z,102490.75
2022-10-16T07:06:52.937Z,102496.53
2022-10-16T07:09:22.781Z,102492.63
2022-10-16T07:11:50.871Z,102496.59
2022-10-16T07:14:20.393Z,102495.34
2022-10-16T07:16:48.629Z,102494.41
2022-10-16T07:19:18.067Z,102504.78
2022-10-16T07:21:45.746Z,102505.91
2022-10-16T07:24:15.746Z,102496.69
2022-10-16T07:26:47.261Z,102504.31
2022-10-16T07:29:16.547Z,102510.50
2022-10-16T07:31:44.239Z,102507.03
2022-10-16T07:34:13.635Z,102508.34
2022-10-16T07:39:10.392Z,102511.25
2022-10-16T07:41:38.857Z,102512.59
2022-10-16T07:44:07.453Z,102516.16
2022-10-16T07:46:37.032Z,102516.00
2022-10-16T07:49:04.876Z,102517.59
2022-10-16T07:51:32.889Z,102523.97
2022-10-16T07:54:00.710Z,102516.22
2022-10-16T07:56:28.310Z,102522.34
2022-10-16T07:58:57.657Z,102523.94
2022-10-16T08:01:25.350Z,102519.13
2022-10-16T08:03:53.265Z,102513.84
2022-10-16T08:06:25.258Z,102514.06
2022-10-16T08:08:56.982Z,102506.28
2022-10-16T08:11:24.692Z,102505.22
2022-10-16T08:13:52.676Z,102497.69
2022-10-16T08:16:22.247Z,102506.25
2022-10-16T08:18:52.566Z,102503.06
2022-10-16T08:21:22.756Z,102503.13
2022-10-16T08:23:54.854Z,102507.28
2022-10-16T08:26:27.239Z,102500.47
2022-10-16T08:28:56.057Z,102503.81
2022-10-16T08:31:24.105Z,102511.16
2022-10-16T08:33:53.498Z,102509.47
2022-10-16T08:36:21.342Z,102509.03
2022-10-16T08:38:51.567Z,102507.91
2022-10-16T08:41:25.681Z,102501.88
2022-10-16T08:44:15.027Z,102501.75
2022-10-16T08:46:49.617Z,102500.19
2022-10-16T08:49:18.469Z,102502.91
2022-10-16T08:51:47.713Z,102498.59
2022-10-16T08:54:41.682Z,102499.63
2022-10-16T08:57:24.262Z,102487.81
2022-10-16T08:59:53.069Z,102484.50
2022-10-16T09:02:23.606Z,102500.44
2022-10-16T09:04:56.931Z,102485.63
2022-10-16T09:08:15.551Z,102495.34
2022-10-16T09:10:58.316Z,102491.88
2022-10-16T09:13:49.727Z,102474.13
2022-10-16T09:16:31.895Z,102486.47
2022-10-16T09:19:16.125Z,102483.13
2022-10-16T09:21:46.448Z,102484.03
2022-10-16T09:24:17.265Z,102485.00
2022-10-16T09:26:45.468Z,102480.75
2022-10-16T09:29:14.130Z,102476.22
2022-10-16T09:31:42.760Z,102483.72
2022-10-16T09:34:32.305Z,102474.63
2022-10-16T09:37:00.571Z,102470.00
2022-10-16T09:39:28.430Z,102466.75
2022-10-16T09:41:56.318Z,102468.06
2022-10-16T09:44:31.837Z,102475.47
2022-10-16T09:47:29.302Z,102470.63
2022-10-16T09:50:20.838Z,102472.88
2022-10-16T09:52:48.642Z,102479.69
2022-10-16T09:55:18.346Z,102479.31
2022-10-16T09:57:52.932Z,102464.22
2022-10-16T10:00:24.019Z,102467.34
2022-10-16T10:02:51.915Z,102471.56
2022-10-16T10:05:26.737Z,102464.81
2022-10-16T10:07:58.737Z,102456.28
2022-10-16T10:10:30.767Z,102459.13
2022-10-16T10:13:01.275Z,102455.81
2022-10-16T10:15:31.787Z,102449.34
2022-10-16T10:17:59.386Z,102443.66
2022-10-16T10:20:33.885Z,102433.31
2022-10-16T10:23:03.909Z,102448.41
2022-10-16T10:26:11.100Z,102430.94
2022-10-16T10:28:44.558Z,102440.25
2022-10-16T10:31:19.501Z,102441.91
2022-10-16T10:34:02.064Z,102434.94
2022-10-16T10:36:41.280Z,102440.19
2022-10-16T10:39:09.125Z,102434.38
2022-10-16T10:41:56.942Z,102434.50
2022-10-16T10:44:37.157Z,102423.22
2022-10-16T10:47:24.253Z,102436.44
2022-10-16T10:50:03.885Z,102434.78
2022-10-16T10:52:35.833Z,102436.03
2022-10-16T10:55:25.202Z,102433.53
2022-10-16T10:58:16.429Z,102437.34
2022-10-16T11:00:56.376Z,102436.09
2022-10-16T11:03:58.466Z,102438.94
2022-10-16T11:06:36.302Z,102432.53
2022-10-16T11:09:24.276Z,102433.28
2022-10-16T11:12:18.233Z,102424.19
2022-10-16T11:15:01.844Z,102426.69
2022-10-16T11:17:34.296Z,102429.25
2022-10-16T11:20:15.070Z,102431.47
2022-10-16T11:22:57.749Z,102427.91
2022-10-16T11:25:28.783Z,102421.44
2022-10-16T11:27:58.532Z,102423.50
2022-10-16T11:30:28.200Z,102412.03
2022-10-16T11:33:13.682Z,102410.97
2022-10-16T11:36:14.019Z,102419.56
2022-10-16T11:39:09.897Z,102421.31
2022-10-16T11:41:53.071Z,102413.09
2022-10-16T11:44:23.790Z,102408.81
2022-10-16T11:47:28.542Z,102407.44
2022-10-16T11:49:51.621Z,102410.34
2022-10-16T11:52:26.512Z,102402.66
2022-10-16T11:55:00.893Z,102409.16
2022-10-16T11:57:30.451Z,102407.88
2022-10-16T12:00:30.211Z,102408.94
2022-10-16T12:03:01.520Z,102411.69
2022-10-16T12:05:53.063Z,102412.34
2022-10-16T12:08:21.289Z,102409.81
2022-10-16T12:10:49.152Z,102411.94
2022-10-16T12:13:34.297Z,102414.13
2022-10-16T12:16:15.207Z,102418.16
2022-10-16T12:18:45.021Z,102408.22
2022-10-16T12:21:16.861Z,102418.03
2022-10-16T12:23:51.961Z,102403.97
2022-10-16T12:26:46.213Z,102402.50
2022-10-16T12:29:15.702Z,102402.78
2022-10-16T12:31:57.419Z,102397.81
2022-10-16T12:34:43.366Z,102386.34
2022-10-16T12:37:13.748Z,102398.84
2022-10-16T12:39:41.300Z,102400.56
2022-10-16T12:42:32.776Z,102401.91
2022-10-16T12:45:03.221Z,102400.78
2022-10-16T12:47:33.838Z,102390.53
2022-10-16T12:50:05.347Z,102409.97
2022-10-16T12:52:35.247Z,102399.34
2022-10-16T12:55:05.285Z,102396.69
2022-10-16T12:58:00.813Z,102405.34
2022-10-16T13:00:45.497Z,102407.69
2022-10-16T13:03:42.422Z,102403.44
2022-10-16T13:06:37.369Z,102407.81
2022-10-16T13:09:12.882Z,102420.63
2022-10-16T13:12:09.146Z,102411.31
2022-10-16T13:15:09.341Z,102418.34
2022-10-16T13:17:54.900Z,102426.22
2022-10-16T13:20:26.153Z,102426.16
2022-10-16T13:23:16.270Z,102420.59
2022-10-16T13:25:49.892Z,102424.78
2022-10-16T13:28:18.032Z,102416.31
2022-10-16T13:30:55.764Z,102418.94
2022-10-16T13:33:43.404Z,102429.97
2022-10-16T13:36:25.059Z,102431.38
2022-10-16T13:39:25.110Z,102435.19
2022-10-16T13:42:27.788Z,102446.44
2022-10-16T13:44:57.155Z,102429.25
2022-10-16T13:47:26.786Z,102431.91
2022-10-16T13:50:07.610Z,102432.94
2022-10-16T13:52:36.374Z,102437.63
2022-10-16T13:55:04.369Z,102437.25
2022-10-16T13:57:34.195Z,102440.78
2022-10-16T14:00:01.988Z,102441.97
2022-10-16T14:02:36.497Z,102446.84
2022-10-16T14:05:04.847Z,102449.88
2022-10-16T14:07:34.803Z,102460.66
2022-10-16T14:10:07.011Z,102460.38
2022-10-16T14:12:37.556Z,102466.19
2022-10-16T14:15:05.934Z,102466.56
2022-10-16T14:17:35.196Z,102466.41
2022-10-16T14:20:07.344Z,102463.47
2022-10-16T14:22:41.801Z,102475.09
2022-10-16T14:25:22.143Z,102477.25
2022-10-16T14:28:03.763Z,102473.78
2022-10-16T14:30:36.211Z,102477.03
2022-10-16T14:33:06.216Z,102469.94
2022-10-16T14:35:38.992Z,102487.16
2022-10-16T14:38:07.263Z,102489.28
2022-10-16T14:40:36.893Z,102489.22
2022-10-16T14:43:04.998Z,102494.56
2022-10-16T14:45:35.044Z,102496.28
2022-10-16T14:48:06.729Z,102500.59
2022-10-16T14:50:34.349Z,102502.47
2022-10-16T14:53:02.074Z,102507.19
2022-10-16T14:55:29.821Z,102511.19
2022-10-16T14:57:59.840Z,102512.16
2022-10-16T15:00:28.593Z,102511.41
2022-10-16T15:02:56.087Z,102516.78
2022-10-16T15:05:26.051Z,102522.34
2022-10-16T15:07:57.163Z,102529.59
2022-10-16T15:10:26.293Z,102517.19
2022-10-16T15:12:54.976Z,102523.56
2022-10-16T15:15:28.352Z,102528.50
2022-10-16T15:18:01.678Z,102533.38
2022-10-16T15:20:31.477Z,102543.16
2022-10-16T15:22:59.115Z,102539.66
2022-10-16T15:25:38.841Z,102548.88
2022-10-16T15:28:06.621Z,102555.69
2022-10-16T15:30:34.421Z,102562.53
2022-10-16T15:33:02.288Z,102568.44
2022-10-16T15:35:30.120Z,102574.03
2022-10-16T15:37:59.077Z,102579.94
2022-10-16T15:40:27.318Z,102588.34
2022-10-16T15:42:55.089Z,102589.53
2022-10-16T15:45:23.325Z,102593.09
2022-10-16T15:47:51.785Z,102602.31
2022-10-16T15:50:19.566Z,102600.78
2022-10-16T15:52:48.301Z,102593.09
2022-10-16T15:55:16.387Z,102599.56
2022-10-16T15:57:44.288Z,102601.38
2022-10-16T16:00:17.208Z,102601.59
2022-10-16T16:02:45.127Z,102602.47
2022-10-16T16:05:12.954Z,102601.38
2022-10-16T16:07:41.380Z,102603.06
2022-10-16T16:10:12.299Z,102604.28
2022-10-16T16:12:40.046Z,102601.03
2022-10-16T16:15:09.002Z,102595.09
2022-10-16T16:17:36.805Z,102593.28
2022-10-16T16:20:05.700Z,102581.94
2022-10-16T16:22:33.350Z,102584.69
2022-10-16T16:25:00.990Z,102586.59
2022-10-16T16:27:31.271Z,102584.66
2022-10-16T16:29:59.155Z,102582.59
2022-10-16T16:32:26.771Z,102587.81
2022-10-16T16:34:54.384Z,102586.59
2022-10-16T16:37:21.963Z,102582.19
2022-10-16T16:39:50.360Z,102581.31
2022-10-16T16:42:18.556Z,102586.59
2022-10-16T16:44:46.076Z,102581.06
2022-10-16T16:47:13.938Z,102583.00
2022-10-16T16:49:41.712Z,102580.38
2022-10-16T16:52:09.507Z,102583.22
2022-10-16T16:54:37.081Z,102569.78
2022-10-16T16:57:05.401Z,102573.78
2022-10-16T16:59:33.905Z,102566.97
2022-10-16T17:02:01.589Z,102568.31
2022-10-16T17:04:29.356Z,102569.06
2022-10-16T17:06:58.159Z,102576.78
2022-10-16T17:09:27.488Z,102569.53
2022-10-16T17:11:55.174Z,102570.59
2022-10-16T17:14:23.856Z,102564.09
2022-10-16T17:16:52.717Z,102570.38
2022-10-16T17:19:20.685Z,102566.00
2022-10-16T17:21:51.754Z,102555.72
2022-10-16T17:24:21.529Z,102560.69
2022-10-16T17:26:49.514Z,102561.72
2022-10-16T17:29:18.538Z,102564.94
2022-10-16T17:31:46.196Z,102554.94
2022-10-16T17:34:14.445Z,102562.22
2022-10-16T17:36:47.155Z,102568.00
2022-10-16T17:39:17.868Z,102568.97
2022-10-16T17:41:46.702Z,102560.97
2022-10-16T17:44:20.080Z,102571.78
2022-10-16T17:46:51.927Z,102581.19
2022-10-16T17:49:19.795Z,102592.16
2022-10-16T17:51:50.464Z,102601.22
2022-10-16T17:54:18.203Z,102594.97
2022-10-16T17:56:47.849Z,102593.22
2022-10-16T17:59:16.254Z,102596.81
2022-10-16T18:01:46.425Z,102610.41
2022-10-16T18:04:15.730Z,102608.66
2022-10-16T18:06:44.127Z,102615.03
2022-10-16T18:09:15.203Z,102621.03
2022-10-16T18:11:42.854Z,102617.34
2022-10-16T18:14:14.717Z,102624.41
2022-10-16T18:16:44.968Z,102618.31
2022-10-16T18:19:13.689Z,102628.00
2022-10-16T18:21:41.521Z,102630.78
2022-10-16T18:24:10.802Z,102633.81
2022-10-16T18:26:39.423Z,102636.00
2022-10-16T18:29:07.119Z,102629.41
2022-10-16T18:31:37.799Z,102635.78
2022-10-16T18:34:08.152Z,102630.34
2022-10-16T18:36:36.816Z,102627.78
2022-10-16T18:39:09.554Z,102635.13
2022-10-16T18:41:42.001Z,102637.28
2022-10-16T18:44:13.458Z,102645.72
2022-10-16T18:46:41.861Z,102639.94
2022-10-16T18:49:09.640Z,102648.88
2022-10-16T18:51:40.383Z,102654.97
2022-10-16T18:54:09.394Z,102651.78
2022-10-16T18:56:40.358Z,102656.00
2022-10-16T18:59:09.231Z,102663.72
2022-10-16T19:01:38.758Z,102666.59
2022-10-16T19:04:08.701Z,102662.84
2022-10-16T19:06:37.745Z,102660.25
2022-10-16T19:09:06.586Z,102664.78
2022-10-16T19:11:37.927Z,102666.81
2022-10-16T19:14:09.345Z,102673.00
2022-10-16T19:16:38.198Z,102666.06
2022-10-16T19:19:07.865Z,102659.59
2022-10-16T19:21:37.100Z,102659.03
2022-10-16T19:24:07.164Z,102659.97
2022-10-16T19:26:36.873Z,102661.81
2022-10-16T19:29:08.244Z,102655.91
2022-10-16T19:31:36.137Z,102655.72
2022-10-16T19:34:04.601Z,102665.00
2022-10-16T19:36:36.587Z,102667.78
2022-10-16T19:39:07.638Z,102663.03
2022-10-16T19:41:36.771Z,102660.16
2022-10-16T19:44:06.056Z,102679.50
2022-10-16T19:46:34.336Z,102685.38
2022-10-16T19:49:04.122Z,102691.00
2022-10-16T19:51:32.119Z,102689.38
2022-10-16T19:54:01.695Z,102698.50
2022-10-16T19:56:30.180Z,102692.44
2022-10-16T19:58:58.122Z,102684.00
2022-10-16T20:01:27.653Z,102679.34
2022-10-16T20:03:55.694Z,102685.47
2022-10-16T20:06:23.437Z,102689.53
2022-10-16T20:08:51.816Z,102691.91
2022-10-16T20:11:21.041Z,102702.44
2022-10-16T20:13:48.795Z,102699.31
2022-10-16T20:16:18.100Z,102709.22
2022-10-16T20:18:46.331Z,102704.88
2022-10-16T20:21:18.409Z,102708.69
2022-10-16T20:23:49.024Z,102718.91
2022-10-16T20:26:18.904Z,102718.25
2022-10-16T20:28:47.549Z,102718.31
2022-10-16T20:31:18.406Z,102718.66
2022-10-16T20:33:46.227Z,102726.13
2022-10-16T20:36:14.336Z,102732.78
2022-10-16T20:38:42.587Z,102734.84
2022-10-16T20:41:10.812Z,102740.41
2022-10-16T20:43:44.756Z,102738.81
2022-10-16T20:46:14.027Z,102737.44
2022-10-16T20:48:44.723Z,102743.13
2022-10-16T20:51:16.718Z,102735.13
2022-10-16T20:53:46.655Z,102728.88
2022-10-16T20:56:16.055Z,102724.53
2022-10-16T20:58:44.302Z,102727.63
2022-10-16T21:01:14.947Z,102719.97
2022-10-16T21:03:42.600Z,102735.38
2022-10-16T21:06:10.579Z,102723.06
2022-10-16T21:08:39.725Z,102726.00
2022-10-16T21:11:12.074Z,102720.75
2022-10-16T21:13:41.116Z,102721.78
2022-10-16T21:16:09.299Z,102706.69
2022-10-16T21:18:40.736Z,102695.19
2022-10-16T21:21:12.283Z,102692.75
2022-10-16T21:23:39.892Z,102685.09
2022-10-16T21:26:07.701Z,102683.59
2022-10-16T21:28:35.396Z,102679.22
2022-10-16T21:31:22.303Z,102683.97
2022-10-16T21:33:50.192Z,102677.03
2022-10-16T21:36:25.730Z,102679.97
2022-10-16T21:38:53.711Z,102683.91
2022-10-16T21:41:24.971Z,102678.59
2022-10-16T21:43:52.621Z,102686.66
2022-10-16T21:46:21.253Z,102683.97
2022-10-16T21:48:49.473Z,102690.22
2022-10-16T21:51:17.138Z,102691.88
2022-10-16T21:53:44.729Z,102687.88
2022-10-16T21:56:16.782Z,102691.78
2022-10-16T21:58:44.693Z,102698.44
2022-10-16T22:01:17.126Z,102695.09
2022-10-16T22:03:47.375Z,102699.78
2022-10-16T22:06:16.168Z,102690.91
2022-10-16T22:08:43.961Z,102704.66
2022-10-16T22:11:22.090Z,102705.81
2022-10-16T22:13:54.231Z,102707.63
2022-10-16T22:16:25.901Z,102709.38
2022-10-16T22:18:54.472Z,102701.25
2022-10-16T22:21:22.996Z,102705.44
2022-10-16T22:23:50.747Z,102719.91
2022-10-16T22:26:18.577Z,102716.44
2022-10-16T22:28:46.615Z,102720.63
2022-10-16T22:31:15.529Z,102715.16
2022-10-16T22:33:44.464Z,102721.56
2022-10-16T22:36:14.408Z,102714.75
2022-10-16T22:38:42.078Z,102718.53
2022-10-16T22:41:11.882Z,102726.81
2022-10-16T22:43:42.919Z,102729.00
2022-10-16T22:46:12.555Z,102731.75
2022-10-16T22:48:40.562Z,102735.53
2022-10-16T22:51:08.391Z,102720.28
2022-10-16T22:53:38.000Z,102730.47
2022-10-16T22:56:05.673Z,102735.97
2022-10-16T22:58:33.815Z,102743.09
2022-10-16T23:01:01.473Z,102740.09
2022-10-16T23:03:29.192Z,102737.69
2022-10-16T23:05:56.981Z,102748.91
2022-10-16T23:08:24.726Z,102747.06
2022-10-16T23:10:52.393Z,102743.78
2022-10-16T23:13:20.025Z,102740.78
2022-10-16T23:15:47.633Z,102734.63
2022-10-16T23:18:17.029Z,102740.00
2022-10-16T23:20:44.601Z,102737.81
2022-10-16T23:23:12.185Z,102732.66
2022-10-16T23:25:47.262Z,102730.91
2022-10-16T23:30:43.181Z,102752.38
2022-10-16T23:33:10.754Z,102753.66
2022-10-16T23:35:41.762Z,102755.09
2022-10-16T23:38:09.773Z,102757.06
2022-10-16T23:40:37.706Z,102755.63
2022-10-16T23:43:05.298Z,102765.00
2022-10-16T23:45:32.944Z,102763.72
2022-10-16T23:48:00.676Z,102760.22
2022-10-16T23:50:30.500Z,102764.78
2022-10-16T23:52:58.092Z,102761.59
2022-10-16T23:55:25.774Z,102771.63
2022-10-16T23:57:53.478Z,102773.44
